createdAt,value
2019-05-02T00:02:36.753Z,38.83
2019-05-02T00:05:27.399Z,43.30
2019-05-02T00:08:13.138Z,41.10
2019-05-02T00:11:00.308Z,43.87
2019-05-02T00:13:48.039Z,42.65
2019-05-02T00:16:35.608Z,43.60
2019-05-02T00:19:22.787Z,47.33
2019-05-02T00:22:12.299Z,40.33
2019-05-02T00:24:59.479Z,46.83
2019-05-02T00:27:46.692Z,39.65
2019-05-02T00:30:34.688Z,40.40
2019-05-02T00:33:22.964Z,53.02
2019-05-02T00:36:10.363Z,47.03
2019-05-02T00:38:57.533Z,46.88
2019-05-02T00:41:44.765Z,45.90
2019-05-02T00:44:32.364Z,48.78
2019-05-02T00:47:33.437Z,35.10
2019-05-02T00:50:21.660Z,42.33
2019-05-02T00:53:12.038Z,38.58
2019-05-02T00:55:58.025Z,41.28
2019-05-02T00:58:45.520Z,37.58
2019-05-02T01:01:46.684Z,34.30
2019-05-02T01:04:35.756Z,38.85
2019-05-02T01:07:25.566Z,32.80
2019-05-02T01:10:12.325Z,42.48
2019-05-02T01:12:59.529Z,37.60
2019-05-02T01:15:46.723Z,39.73
2019-05-02T01:18:37.108Z,39.40
2019-05-02T01:21:23.367Z,32.25
2019-05-02T01:24:10.609Z,39.95
2019-05-02T01:27:06.530Z,38.83
2019-05-02T01:30:01.641Z,39.78
2019-05-02T01:32:49.053Z,43.70
2019-05-02T01:35:40.959Z,40.73
2019-05-02T01:38:33.801Z,44.65
2019-05-02T01:41:24.122Z,42.93
2019-05-02T01:44:09.536Z,43.25
2019-05-02T01:46:58.895Z,41.88
2019-05-02T01:49:45.941Z,50.28
2019-05-02T01:52:33.107Z,45.65
2019-05-02T01:55:21.123Z,45.55
2019-05-02T01:58:09.869Z,46.80
2019-05-02T02:00:57.142Z,51.15
2019-05-02T02:06:32.163Z,44.95
2019-05-02T02:09:19.713Z,52.67
2019-05-02T02:12:09.775Z,50.92
2019-05-02T02:14:55.665Z,46.98
2019-05-02T02:17:46.830Z,50.50
2019-05-02T02:20:33.506Z,44.38
2019-05-02T02:23:28.468Z,59.33
2019-05-02T02:26:25.730Z,53.68
2019-05-02T02:29:13.180Z,52.43
2019-05-02T02:32:00.770Z,53.75
2019-05-02T02:34:48.169Z,56.65
2019-05-02T02:37:35.695Z,54.23
2019-05-02T02:40:32.580Z,51.75
2019-05-02T02:43:32.184Z,55.65
2019-05-02T02:46:04.106Z,60.55
2019-05-02T02:48:51.290Z,59.50
2019-05-02T02:54:24.670Z,58.92
2019-05-02T02:57:20.551Z,67.00
2019-05-02T03:00:07.885Z,69.10
2019-05-02T03:02:50.109Z,59.15
2019-05-02T03:05:37.975Z,64.17
2019-05-02T03:08:25.979Z,64.47
2019-05-02T03:11:22.344Z,64.35
2019-05-02T03:14:07.481Z,61.98
2019-05-02T03:16:53.837Z,65.35
2019-05-02T03:19:41.637Z,74.75
2019-05-02T03:22:34.861Z,68.25
2019-05-02T03:25:25.003Z,68.07
2019-05-02T03:28:17.333Z,78.25
2019-05-02T03:30:56.101Z,68.37
2019-05-02T03:33:54.417Z,74.40
2019-05-02T03:36:36.059Z,72.17
2019-05-02T03:39:22.439Z,71.47
2019-05-02T03:42:09.970Z,74.22
2019-05-02T03:45:03.816Z,68.50
2019-05-02T03:47:46.573Z,65.50
2019-05-02T03:50:35.376Z,65.65
2019-05-02T03:53:25.238Z,58.65
2019-05-02T03:56:14.086Z,58.58
2019-05-02T03:59:00.596Z,67.70
2019-05-02T04:01:48.384Z,61.95
2019-05-02T04:04:35.497Z,57.65
2019-05-02T04:07:23.321Z,61.33
2019-05-02T04:10:13.386Z,54.67
2019-05-02T04:13:00.427Z,62.33
2019-05-02T04:15:47.525Z,66.30
2019-05-02T04:18:34.693Z,81.20
2019-05-02T04:21:25.901Z,67.75
2019-05-02T04:24:15.764Z,72.47
2019-05-02T04:27:01.020Z,79.75
2019-05-02T04:29:48.169Z,63.80
2019-05-02T04:32:35.508Z,72.22
2019-05-02T04:35:28.736Z,64.50
2019-05-02T04:38:20.006Z,63.25
2019-05-02T04:41:00.353Z,72.37
2019-05-02T04:43:57.404Z,71.28
2019-05-02T04:46:38.807Z,78.22
2019-05-02T04:49:29.976Z,83.37
2019-05-02T04:52:17.171Z,79.25
2019-05-02T04:55:14.630Z,90.42
2019-05-02T04:57:53.208Z,93.30
2019-05-02T05:00:45.126Z,86.95
2019-05-02T05:03:29.574Z,80.55
2019-05-02T05:06:18.916Z,97.15
2019-05-02T05:09:10.397Z,85.67
2019-05-02T05:12:00.886Z,79.67
2019-05-02T05:14:44.460Z,85.47
2019-05-02T05:20:19.345Z,73.83
2019-05-02T05:23:08.251Z,74.05
2019-05-02T05:26:03.426Z,74.72
2019-05-02T05:28:47.659Z,81.65
2019-05-02T05:31:35.131Z,74.55
2019-05-02T05:34:22.798Z,79.87
2019-05-02T05:37:13.480Z,85.35
2019-05-02T05:39:59.853Z,90.40
2019-05-02T05:42:48.109Z,77.50
2019-05-02T05:45:48.636Z,80.57
2019-05-02T05:48:24.390Z,85.62
2019-05-02T05:54:03.002Z,89.37
2019-05-02T05:56:48.290Z,107.92
2019-05-02T05:59:37.806Z,93.82
2019-05-02T06:02:24.350Z,96.63
2019-05-02T06:05:11.758Z,110.52
2019-05-02T06:07:58.998Z,116.15
2019-05-02T06:10:46.441Z,123.53
2019-05-02T06:13:33.829Z,124.30
2019-05-02T06:16:21.220Z,126.38
2019-05-02T06:19:13.046Z,133.97
2019-05-02T06:21:57.665Z,120.47
2019-05-02T06:27:32.794Z,103.67
2019-05-02T06:30:20.208Z,103.67
2019-05-02T06:33:07.176Z,112.72
2019-05-02T06:36:01.122Z,114.00
2019-05-02T06:38:43.057Z,105.65
2019-05-02T06:41:30.733Z,112.83
2019-05-02T06:44:18.422Z,115.20
2019-05-02T06:47:06.843Z,121.47
2019-05-02T06:49:56.145Z,113.90
2019-05-02T06:52:42.838Z,115.12
2019-05-02T06:55:36.158Z,133.45
2019-05-02T06:58:18.360Z,114.40
2019-05-02T07:01:05.858Z,116.55
2019-05-02T07:03:53.241Z,118.20
2019-05-02T07:06:56.187Z,121.47
2019-05-02T07:09:40.307Z,117.75
2019-05-02T07:12:18.497Z,122.33
2019-05-02T07:15:28.144Z,118.20
2019-05-02T07:18:25.468Z,119.28
2019-05-02T07:26:52.078Z,130.07
2019-05-02T07:29:36.892Z,126.35
2019-05-02T07:32:25.158Z,140.10
2019-05-02T07:35:13.044Z,117.57
2019-05-02T07:38:00.300Z,118.05
2019-05-02T07:40:48.148Z,110.32
2019-05-02T07:43:35.449Z,117.08
2019-05-02T07:46:22.662Z,115.52
2019-05-02T07:49:10.105Z,115.72
2019-05-02T07:51:58.921Z,118.22
2019-05-02T07:54:46.454Z,114.42
2019-05-02T07:57:33.820Z,115.95
2019-05-02T08:00:21.432Z,107.83
2019-05-02T08:03:08.719Z,121.53
2019-05-02T08:05:58.537Z,111.57
2019-05-02T08:08:46.169Z,119.28
2019-05-02T08:11:37.234Z,117.17
2019-05-02T08:14:22.011Z,108.07
2019-05-02T08:17:16.159Z,111.03
2019-05-02T08:19:58.408Z,112.05
2019-05-02T08:22:49.027Z,107.58
2019-05-02T08:25:34.449Z,113.42
2019-05-02T08:28:39.791Z,112.72
2019-05-02T08:31:30.044Z,109.03
2019-05-02T08:34:17.939Z,108.78
2019-05-02T08:37:05.286Z,112.75
2019-05-02T08:39:52.687Z,110.30
2019-05-02T08:42:39.862Z,117.40
2019-05-02T08:45:27.399Z,112.42
2019-05-02T08:48:14.507Z,107.22
2019-05-02T08:51:01.953Z,106.58
2019-05-02T08:53:52.119Z,98.20
2019-05-02T08:56:38.626Z,103.42
2019-05-02T08:59:26.197Z,97.12
2019-05-02T09:02:13.634Z,97.27
2019-05-02T09:05:04.647Z,102.90
2019-05-02T09:07:49.585Z,101.27
2019-05-02T09:10:41.605Z,100.58
2019-05-02T09:13:29.118Z,98.07
2019-05-02T09:16:14.673Z,93.87
2019-05-02T09:19:02.747Z,97.82
2019-05-02T09:21:52.567Z,89.62
2019-05-02T09:24:42.353Z,89.20
2019-05-02T09:27:28.099Z,93.87
2019-05-02T09:30:17.151Z,88.20
2019-05-02T09:33:06.599Z,85.50
2019-05-02T09:35:53.330Z,87.78
2019-05-02T09:38:42.352Z,80.32
2019-05-02T09:41:34.432Z,85.10
2019-05-02T09:44:18.827Z,83.85
2019-05-02T09:47:06.216Z,81.95
2019-05-02T09:50:12.830Z,82.05
2019-05-02T09:53:01.955Z,89.67
2019-05-02T09:55:53.505Z,79.53
2019-05-02T09:58:38.353Z,79.90
2019-05-02T10:01:31.706Z,78.95
2019-05-02T10:04:18.672Z,85.20
2019-05-02T10:07:06.061Z,79.92
2019-05-02T10:09:53.129Z,79.07
2019-05-02T10:12:42.590Z,70.50
2019-05-02T10:15:29.393Z,80.55
2019-05-02T10:18:19.636Z,73.05
2019-05-02T10:21:07.728Z,82.25
2019-05-02T10:23:59.413Z,76.97
2019-05-02T10:26:43.085Z,76.70
2019-05-02T10:29:32.724Z,76.20
2019-05-02T10:32:19.409Z,71.77
2019-05-02T10:35:09.093Z,66.47
2019-05-02T10:37:56.593Z,70.00
2019-05-02T10:40:43.685Z,65.92
2019-05-02T10:43:32.764Z,58.73
2019-05-02T10:46:37.875Z,57.10
2019-05-02T10:49:31.928Z,52.20
2019-05-02T10:52:21.619Z,52.00
2019-05-02T10:55:07.633Z,48.08
2019-05-02T10:57:54.969Z,49.23
2019-05-02T11:00:45.229Z,47.83
2019-05-02T11:03:32.788Z,49.95
2019-05-02T11:06:22.078Z,47.70
2019-05-02T11:09:12.096Z,44.35
2019-05-02T11:12:02.445Z,39.27
2019-05-02T11:14:51.662Z,40.88
2019-05-02T11:17:43.652Z,38.65
2019-05-02T11:20:31.870Z,42.03
2019-05-02T11:23:19.169Z,50.55
2019-05-02T11:26:06.428Z,34.55
2019-05-02T11:28:53.526Z,37.28
2019-05-02T11:31:42.772Z,46.77
2019-05-02T11:34:29.681Z,37.30
2019-05-02T11:37:16.497Z,32.23
2019-05-02T11:40:07.050Z,35.68
2019-05-02T11:42:57.263Z,31.45
2019-05-02T11:45:44.091Z,34.67
2019-05-02T11:48:32.019Z,34.75
2019-05-02T11:51:19.306Z,38.90
2019-05-02T11:54:09.351Z,29.10
2019-05-02T11:56:55.310Z,30.65
2019-05-02T11:59:42.571Z,34.65
2019-05-02T12:02:32.001Z,38.08
2019-05-02T12:05:22.205Z,43.78
2019-05-02T12:08:12.070Z,36.80
2019-05-02T12:11:01.238Z,35.58
2019-05-02T12:13:51.610Z,29.40
2019-05-02T12:16:36.095Z,30.97
2019-05-02T12:19:23.217Z,34.78
2019-05-02T12:22:12.905Z,30.68
2019-05-02T12:24:59.549Z,29.60
2019-05-02T12:27:46.569Z,34.73
2019-05-02T12:30:37.678Z,27.00
2019-05-02T12:33:24.274Z,30.35
2019-05-02T12:36:12.042Z,29.60
2019-05-02T12:38:59.476Z,32.13
2019-05-02T12:41:46.780Z,31.45
2019-05-02T12:44:33.912Z,34.03
2019-05-02T12:47:22.541Z,34.38
2019-05-02T12:50:09.627Z,35.00
2019-05-02T12:52:56.484Z,28.50
2019-05-02T12:55:43.984Z,34.05
2019-05-02T12:58:32.567Z,35.05
2019-05-02T13:01:21.655Z,32.98
2019-05-02T13:04:12.271Z,34.63
2019-05-02T13:06:58.953Z,40.48
2019-05-02T13:09:46.547Z,31.93
2019-05-02T13:12:35.511Z,30.08
2019-05-02T13:15:23.573Z,32.28
2019-05-02T13:18:12.466Z,30.45
2019-05-02T13:21:02.265Z,31.27
2019-05-02T13:23:57.019Z,32.88
2019-05-02T13:26:44.071Z,35.68
2019-05-02T13:29:32.187Z,36.30
2019-05-02T13:32:21.803Z,35.52
2019-05-02T13:35:14.567Z,31.05
2019-05-02T13:38:02.919Z,34.55
2019-05-02T13:40:51.742Z,29.18
2019-05-02T13:43:41.878Z,29.07
2019-05-02T13:46:29.550Z,27.00
2019-05-02T13:49:16.326Z,26.55
2019-05-02T13:52:03.638Z,24.07
2019-05-02T13:54:52.257Z,20.72
2019-05-02T13:57:45.343Z,23.05
2019-05-02T14:00:46.444Z,20.43
2019-05-02T14:03:33.282Z,28.62
2019-05-02T14:06:22.044Z,27.70
2019-05-02T14:09:19.845Z,26.20
2019-05-02T14:12:15.757Z,28.42
2019-05-02T14:15:03.207Z,24.92
2019-05-02T14:17:52.361Z,30.43
2019-05-02T14:20:39.205Z,29.32
2019-05-02T14:23:26.978Z,28.55
2019-05-02T14:26:27.225Z,33.75
2019-05-02T14:29:02.646Z,38.42
2019-05-02T14:31:51.800Z,34.23
2019-05-02T14:34:49.388Z,33.40
2019-05-02T14:37:36.605Z,32.17
2019-05-02T14:40:25.792Z,29.15
2019-05-02T14:43:14.643Z,28.45
2019-05-02T14:46:02.896Z,34.98
2019-05-02T14:48:52.327Z,27.50
2019-05-02T14:51:41.644Z,27.87
2019-05-02T14:54:28.541Z,24.65
2019-05-02T14:57:22.052Z,29.37
2019-05-02T15:00:09.051Z,26.17
2019-05-02T15:02:55.937Z,27.37
2019-05-02T15:05:42.767Z,30.88
2019-05-02T15:08:32.115Z,28.87
2019-05-02T15:11:18.552Z,27.17
2019-05-02T15:14:05.852Z,30.32
2019-05-02T15:16:56.609Z,31.05
2019-05-02T15:19:42.744Z,26.30
2019-05-02T15:22:33.139Z,31.23
2019-05-02T15:25:18.672Z,26.45
2019-05-02T15:28:07.697Z,28.57
2019-05-02T15:31:08.724Z,25.80
2019-05-02T15:34:06.474Z,26.55
2019-05-02T15:36:53.936Z,26.77
2019-05-02T15:42:29.817Z,28.50
2019-05-02T15:45:17.222Z,28.62
2019-05-02T15:48:04.816Z,29.70
2019-05-02T15:50:55.345Z,26.62
2019-05-02T15:54:05.331Z,30.75
2019-05-02T15:57:00.164Z,33.30
2019-05-02T15:59:44.780Z,26.27
2019-05-02T16:02:32.082Z,27.27
2019-05-02T16:05:21.664Z,36.98
2019-05-02T16:08:09.106Z,31.30
2019-05-02T16:10:56.297Z,30.08
2019-05-02T16:13:46.986Z,26.30
2019-05-02T16:16:36.558Z,30.92
2019-05-02T16:19:28.825Z,29.98
2019-05-02T16:22:18.614Z,24.57
2019-05-02T16:25:07.251Z,25.40
2019-05-02T16:27:57.417Z,26.42
2019-05-02T16:30:47.635Z,25.50
2019-05-02T16:33:33.511Z,23.30
2019-05-02T16:36:26.038Z,21.97
2019-05-02T16:39:11.211Z,23.32
2019-05-02T16:41:58.859Z,21.55
2019-05-02T16:44:45.838Z,23.50
2019-05-02T16:47:33.187Z,22.00
2019-05-02T16:50:22.719Z,22.48
2019-05-02T16:53:09.397Z,25.08
2019-05-02T16:55:58.277Z,22.52
2019-05-02T16:58:47.059Z,21.37
2019-05-02T17:01:34.445Z,19.55
2019-05-02T17:04:22.352Z,20.40
2019-05-02T17:07:11.658Z,20.72
2019-05-02T17:10:03.137Z,17.62
2019-05-02T17:12:56.603Z,21.68
2019-05-02T17:15:42.794Z,18.23
2019-05-02T17:18:30.278Z,18.75
2019-05-02T17:21:17.150Z,20.27
2019-05-02T17:24:04.733Z,15.95
2019-05-02T17:26:51.964Z,18.52
2019-05-02T17:29:40.995Z,18.57
2019-05-02T17:32:28.829Z,17.48
2019-05-02T17:35:16.378Z,18.98
2019-05-02T17:38:06.078Z,18.42
2019-05-02T17:41:04.714Z,16.52
2019-05-02T17:43:49.041Z,13.98
2019-05-02T17:46:36.736Z,14.63
2019-05-02T17:49:34.900Z,14.78
2019-05-02T17:52:26.792Z,15.15
2019-05-02T17:55:12.084Z,13.75
2019-05-02T17:57:59.292Z,14.28
2019-05-02T18:00:54.537Z,16.37
2019-05-02T18:03:36.567Z,23.18
2019-05-02T18:06:32.463Z,17.35
2019-05-02T18:09:15.476Z,19.02
2019-05-02T18:12:01.615Z,16.60
2019-05-02T18:14:53.126Z,19.07
2019-05-02T18:17:37.536Z,18.27
2019-05-02T18:20:28.557Z,18.70
2019-05-02T18:23:18.782Z,20.48
2019-05-02T18:26:06.416Z,19.70
2019-05-02T18:28:57.219Z,24.32
2019-05-02T18:31:47.281Z,18.85
2019-05-02T18:34:32.032Z,21.48
2019-05-02T18:37:19.166Z,18.15
2019-05-02T18:40:07.324Z,24.20
2019-05-02T18:42:56.615Z,24.65
2019-05-02T18:45:43.036Z,25.30
2019-05-02T18:48:31.883Z,25.68
2019-05-02T18:51:19.262Z,22.95
2019-05-02T18:54:07.671Z,26.23
2019-05-02T18:56:55.597Z,27.30
2019-05-02T18:59:42.838Z,25.65
2019-05-02T19:02:32.775Z,25.50
2019-05-02T19:05:21.145Z,31.48
2019-05-02T19:08:08.728Z,27.37
2019-05-02T19:11:05.919Z,27.58
2019-05-02T19:13:48.017Z,29.57
2019-05-02T19:16:38.063Z,30.97
2019-05-02T19:19:27.401Z,34.85
2019-05-02T19:22:17.529Z,31.40
2019-05-02T19:25:06.318Z,32.30
2019-05-02T19:28:04.028Z,29.82
2019-05-02T19:30:51.990Z,27.90
2019-05-02T19:33:42.727Z,27.17
2019-05-02T19:36:29.372Z,22.58
2019-05-02T19:39:16.996Z,20.68
2019-05-02T19:42:04.307Z,18.37
2019-05-02T19:44:52.790Z,19.07
2019-05-02T19:47:56.473Z,17.95
2019-05-02T19:50:44.060Z,15.78
2019-05-02T19:53:33.893Z,20.15
2019-05-02T19:56:21.959Z,15.18
2019-05-02T19:59:09.697Z,14.60
2019-05-02T20:02:02.521Z,13.88
2019-05-02T20:04:47.649Z,15.10
2019-05-02T20:07:34.759Z,11.90
2019-05-02T20:10:22.751Z,12.33
2019-05-02T20:13:11.989Z,14.78
2019-05-02T20:16:05.784Z,12.35
2019-05-02T20:18:53.012Z,12.25
2019-05-02T20:21:57.189Z,11.73
2019-05-02T20:24:58.318Z,14.95
2019-05-02T20:27:42.439Z,39.65
2019-05-02T20:30:29.697Z,28.25
2019-05-02T20:33:18.785Z,16.75
2019-05-02T20:36:08.124Z,11.80
2019-05-02T20:39:02.305Z,11.63
2019-05-02T20:41:50.353Z,11.38
2019-05-02T20:44:37.530Z,9.75
2019-05-02T20:47:26.553Z,10.10
2019-05-02T20:50:15.930Z,8.43
2019-05-02T20:53:03.973Z,8.30
2019-05-02T20:55:52.394Z,7.90
2019-05-02T20:58:41.824Z,9.43
2019-05-02T21:01:29.390Z,7.08
2019-05-02T21:04:16.941Z,7.20
2019-05-02T21:07:07.080Z,7.03
2019-05-02T21:10:12.540Z,7.80
2019-05-02T21:13:01.957Z,11.18
2019-05-02T21:15:48.681Z,10.03
2019-05-02T21:18:35.931Z,14.85
2019-05-02T21:21:25.189Z,11.68
2019-05-02T21:24:12.500Z,10.95
2019-05-02T21:27:04.348Z,13.20
2019-05-02T21:29:53.805Z,12.30
2019-05-02T21:32:42.635Z,14.23
2019-05-02T21:35:34.304Z,14.65
2019-05-02T21:38:22.585Z,9.00
2019-05-02T21:41:11.430Z,7.25
2019-05-02T21:43:58.963Z,5.87
2019-05-02T21:46:49.107Z,6.28
2019-05-02T21:49:45.402Z,4.87
2019-05-02T21:52:42.285Z,6.00
2019-05-02T21:55:32.338Z,4.35
2019-05-02T21:58:21.536Z,5.37
2019-05-02T22:01:12.749Z,6.47
2019-05-02T22:03:59.684Z,6.90
2019-05-02T22:06:47.058Z,7.20
2019-05-02T22:09:34.421Z,13.70
2019-05-02T22:12:22.567Z,8.13
2019-05-02T22:15:12.766Z,9.08
2019-05-02T22:18:01.620Z,5.90
2019-05-02T22:20:48.881Z,6.10
2019-05-02T22:23:36.246Z,7.25
2019-05-02T22:26:23.632Z,5.67
2019-05-02T22:29:12.318Z,5.78
2019-05-02T22:32:00.037Z,5.45
2019-05-02T22:34:46.917Z,4.72
2019-05-02T22:37:34.126Z,5.17
2019-05-02T22:40:21.818Z,6.10
2019-05-02T22:43:08.790Z,6.70
2019-05-02T22:45:55.948Z,6.67
2019-05-02T22:51:29.393Z,8.65
2019-05-02T22:57:04.418Z,6.67
2019-05-02T22:59:52.167Z,6.60
2019-05-02T23:02:39.410Z,10.75
2019-05-02T23:05:26.995Z,11.08
2019-05-02T23:08:14.397Z,10.13
2019-05-02T23:11:03.408Z,13.72
2019-05-02T23:13:51.776Z,11.35
2019-05-02T23:16:39.306Z,16.42
2019-05-02T23:19:26.606Z,15.43
2019-05-02T23:25:04.209Z,12.37
2019-05-02T23:27:53.286Z,14.30
2019-05-02T23:30:42.340Z,15.15
2019-05-02T23:33:51.470Z,13.78
2019-05-02T23:36:41.626Z,15.40
2019-05-02T23:39:29.038Z,16.52
2019-05-02T23:42:16.403Z,16.60
2019-05-02T23:47:52.408Z,15.13
2019-05-02T23:50:39.524Z,18.17
2019-05-02T23:53:31.575Z,18.20
2019-05-02T23:56:18.455Z,19.20
